Terminal Aerodrome Forecast
Issued by NWS Sioux Falls, SD

Home | Current Version | Previous Version | Text Only | Print | Product List | Glossary On
Versions: 1 2 3 4 5 6 7 8 9 10 11 12 13 14 15 16 17 18
000
FTUS43 KFSD 212341
TAFFSD
TAF
KFSD 212341Z 2200/2224 17018G25KT 4SM BR OVC004
     FM220600 16013G20KT 3SM RA OVC006
     FM221100 17011KT 5SM -RA OVC004
     FM221600 21008KT 6SM -RA OVC008
     FM222100 26007KT 5SM -RASN OVC008=

USA.gov is the U.S. government's official web portal to all federal, state and local government web resources and services.